Time;durP1;ratioP1;P1;durP2;ratioP2;P2;SDS_P1;SDS_P2;PMS_P1;PMS_P2;Temp;Humidity;BMP_temperature;BMP_pressure;BME280_temperature;BME280_humidity;BME280_pressure;Samples;Min_cycle;Max_cycle;Signal;HPM_P1;HPM_P2
2021/05/01 00:01:46;;;;;;;21.85;19.10;;;;;;;;;;5093782;28;20209;-61
2021/05/01 00:04:13;;;;;;;28.38;22.65;;;;;;;;;;5094159;28;20216;-61
2021/05/01 00:06:40;;;;;;;25.70;22.08;;;;;;;;;;5093503;28;20320;-61
2021/05/01 00:09:07;;;;;;;23.73;20.35;;;;;;;;;;5093262;28;20220;-61
2021/05/01 00:11:34;;;;;;;25.13;20.73;;;;;;;;;;5093749;28;20211;-61
2021/05/01 00:14:01;;;;;;;24.77;21.70;;;;;;;;;;5093462;28;20277;-61
2021/05/01 00:16:28;;;;;;;32.80;22.40;;;;;;;;;;5093326;28;20671;-61
2021/05/01 00:18:55;;;;;;;27.05;21.05;;;;;;;;;;5093865;28;20204;-61
2021/05/01 00:21:22;;;;;;;28.77;22.40;;;;;;;;;;5093673;28;20197;-61
2021/05/01 00:23:49;;;;;;;26.92;21.00;;;;;;;;;;5095617;28;20742;-61
2021/05/01 00:26:16;;;;;;;25.50;21.10;;;;;;;;;;5097396;28;20208;-61
2021/05/01 00:28:43;;;;;;;29.42;21.55;;;;;;;;;;5097400;28;20281;-61
2021/05/01 00:31:09;;;;;;;26.05;21.50;;;;;;;;;;5097345;28;20215;-61
2021/05/01 00:33:38;;;;;;;25.65;21.85;;;;;;;;;;5097276;28;20220;-61
2021/05/01 00:36:05;;;;;;;24.45;20.42;;;;;;;;;;5097349;28;20200;-61
2021/05/01 00:38:33;;;;;;;24.35;20.50;;;;;;;;;;5097342;28;20192;-62
2021/05/01 00:41:00;;;;;;;25.17;21.13;;;;;;;;;;5097317;28;20691;-61
2021/05/01 00:43:26;;;;;;;24.00;19.63;;;;;;;;;;5096863;28;20216;-61
2021/05/01 00:45:53;;;;;;;24.83;20.77;;;;;;;;;;5097278;28;20208;-61
2021/05/01 00:48:20;;;;;;;28.08;21.40;;;;;;;;;;5097107;28;20224;-61
2021/05/01 00:50:47;;;;;;;24.60;21.65;;;;;;;;;;5097044;28;20253;-61
2021/05/01 00:53:14;;;;;;;27.92;21.50;;;;;;;;;;5096680;28;20227;-61
2021/05/01 00:55:42;;;;;;;26.83;22.25;;;;;;;;;;5096912;28;20204;-61
2021/05/01 00:58:10;;;;;;;24.23;20.10;;;;;;;;;;5096640;28;20749;-62
2021/05/01 01:00:51;;;;;;;30.45;22.35;;;;;;;;;;5097285;28;20682;-60
2021/05/01 01:03:18;;;;;;;24.70;20.75;;;;;;;;;;5096454;28;20722;-60
2021/05/01 01:05:44;;;;;;;28.50;21.00;;;;;;;;;;5097624;28;20196;-60
2021/05/01 01:08:11;;;;;;;28.05;22.48;;;;;;;;;;5097205;28;20220;-60
2021/05/01 01:10:38;;;;;;;24.63;21.65;;;;;;;;;;5096521;28;20204;-61
2021/05/01 01:13:05;;;;;;;26.65;20.55;;;;;;;;;;5096166;28;20239;-60
2021/05/01 01:15:33;;;;;;;28.23;22.13;;;;;;;;;;5096313;28;20257;-61
2021/05/01 01:18:00;;;;;;;29.52;22.60;;;;;;;;;;5096339;28;20738;-60
2021/05/01 01:20:27;;;;;;;26.52;21.25;;;;;;;;;;5096448;28;20204;-61
2021/05/01 01:22:55;;;;;;;27.10;23.00;;;;;;;;;;5096314;28;20224;-60
2021/05/01 01:25:22;;;;;;;26.95;22.60;;;;;;;;;;5096415;28;20252;-61
2021/05/01 01:27:49;;;;;;;26.95;22.35;;;;;;;;;;5096256;28;20211;-61
2021/05/01 01:30:18;;;;;;;27.00;21.73;;;;;;;;;;5095994;28;20204;-60
2021/05/01 01:32:45;;;;;;;26.75;21.17;;;;;;;;;;5096178;28;20235;-61
2021/05/01 01:35:14;;;;;;;28.02;23.02;;;;;;;;;;5095561;28;20200;-61
2021/05/01 01:37:41;;;;;;;26.83;21.58;;;;;;;;;;5096169;28;20215;-61
2021/05/01 01:40:10;;;;;;;26.38;20.48;;;;;;;;;;5095719;28;20205;-61
2021/05/01 01:42:37;;;;;;;27.73;22.38;;;;;;;;;;5095946;28;20297;-61
2021/05/01 01:45:04;;;;;;;27.88;22.35;;;;;;;;;;5095739;28;20200;-61
2021/05/01 01:47:31;;;;;;;24.23;21.17;;;;;;;;;;5095766;28;20245;-61
2021/05/01 01:49:58;;;;;;;26.40;20.90;;;;;;;;;;5095902;28;20225;-61
2021/05/01 01:52:24;;;;;;;25.02;21.05;;;;;;;;;;5095756;28;20200;-61
2021/05/01 01:54:51;;;;;;;28.45;22.25;;;;;;;;;;5095466;28;20204;-61
2021/05/01 01:57:19;;;;;;;26.05;21.52;;;;;;;;;;5095425;28;20196;-61
2021/05/01 01:59:46;;;;;;;28.10;22.02;;;;;;;;;;5095528;28;20609;-61
2021/05/01 02:02:12;;;;;;;26.25;20.80;;;;;;;;;;5095527;28;20328;-61
2021/05/01 02:04:39;;;;;;;26.90;22.13;;;;;;;;;;5095912;28;20200;-61
2021/05/01 02:07:06;;;;;;;28.95;22.52;;;;;;;;;;5095427;28;20245;-60
2021/05/01 02:09:32;;;;;;;28.92;21.60;;;;;;;;;;5095788;28;20220;-61
2021/05/01 02:11:59;;;;;;;27.83;22.33;;;;;;;;;;5095433;28;20643;-61
2021/05/01 02:14:27;;;;;;;25.83;21.60;;;;;;;;;;5096481;28;20254;-61
2021/05/01 02:16:54;;;;;;;24.17;20.90;;;;;;;;;;5095568;28;20273;-61
2021/05/01 02:19:20;;;;;;;24.65;21.30;;;;;;;;;;5095640;28;20674;-61
2021/05/01 02:21:47;;;;;;;27.10;22.88;;;;;;;;;;5095075;28;20204;-61
2021/05/01 02:24:14;;;;;;;24.70;21.38;;;;;;;;;;5095521;28;20220;-60
2021/05/01 02:26:41;;;;;;;26.70;21.45;;;;;;;;;;5095363;28;20208;-61
2021/05/01 02:29:08;;;;;;;26.27;22.33;;;;;;;;;;5095064;28;20219;-61
2021/05/01 02:31:35;;;;;;;28.65;23.05;;;;;;;;;;5095233;28;20204;-60
2021/05/01 02:34:02;;;;;;;26.05;21.83;;;;;;;;;;5095104;28;20594;-61
2021/05/01 02:36:29;;;;;;;29.67;20.98;;;;;;;;;;5095183;28;20197;-61
2021/05/01 02:38:56;;;;;;;27.50;21.70;;;;;;;;;;5094930;28;20196;-61
2021/05/01 02:41:24;;;;;;;24.85;21.55;;;;;;;;;;5094936;28;20578;-61
2021/05/01 02:43:51;;;;;;;28.05;21.60;;;;;;;;;;5094799;28;20220;-61
2021/05/01 02:46:18;;;;;;;25.38;20.48;;;;;;;;;;5093677;28;20200;-61
2021/05/01 02:48:46;;;;;;;28.63;23.15;;;;;;;;;;5094210;28;20216;-61
2021/05/01 02:51:12;;;;;;;27.00;21.77;;;;;;;;;;5094796;28;20565;-61
2021/05/01 02:53:39;;;;;;;28.17;22.42;;;;;;;;;;5094352;28;20757;-61
2021/05/01 02:56:06;;;;;;;29.25;23.13;;;;;;;;;;5094471;28;20215;-61
2021/05/01 02:58:33;;;;;;;30.15;22.60;;;;;;;;;;5094251;28;20718;-61
2021/05/01 03:00:59;;;;;;;28.80;22.40;;;;;;;;;;5094424;28;20223;-61
2021/05/01 03:03:26;;;;;;;27.40;22.40;;;;;;;;;;5094258;28;20707;-61
2021/05/01 03:05:54;;;;;;;30.77;24.77;;;;;;;;;;5094217;28;20204;-61
2021/05/01 03:08:21;;;;;;;27.35;22.42;;;;;;;;;;5094341;28;20254;-61
2021/05/01 03:10:48;;;;;;;29.30;23.55;;;;;;;;;;5094820;28;20200;-61
2021/05/01 03:13:14;;;;;;;28.90;23.73;;;;;;;;;;5094113;28;20289;-61
2021/05/01 03:15:41;;;;;;;26.63;22.40;;;;;;;;;;5094407;28;20208;-60
2021/05/01 03:18:09;;;;;;;28.42;23.27;;;;;;;;;;5094491;28;20200;-60
2021/05/01 03:20:36;;;;;;;28.15;22.33;;;;;;;;;;5094453;28;20200;-61
2021/05/01 03:23:07;;;;;;;28.38;22.38;;;;;;;;;;5094020;28;20707;-61
2021/05/01 03:25:34;;;;;;;28.13;23.42;;;;;;;;;;5094471;28;20538;-61
2021/05/01 03:28:01;;;;;;;29.05;23.02;;;;;;;;;;5093885;28;20300;-61
2021/05/01 03:30:28;;;;;;;28.13;23.63;;;;;;;;;;5094240;28;20243;-60
2021/05/01 03:32:54;;;;;;;26.33;22.88;;;;;;;;;;5094600;28;20242;-60
2021/05/01 03:35:21;;;;;;;29.40;22.77;;;;;;;;;;5094121;28;20223;-60
2021/05/01 03:37:48;;;;;;;30.10;24.38;;;;;;;;;;5093728;28;20672;-61
2021/05/01 03:40:16;;;;;;;28.48;24.63;;;;;;;;;;5094220;28;20291;-61
2021/05/01 03:42:43;;;;;;;35.50;25.02;;;;;;;;;;5094132;28;20228;-60
2021/05/01 03:45:10;;;;;;;32.78;25.10;;;;;;;;;;5094024;28;20660;-61
2021/05/01 03:47:37;;;;;;;30.40;24.70;;;;;;;;;;5094347;28;20250;-61
2021/05/01 03:50:04;;;;;;;29.30;24.13;;;;;;;;;;5093825;28;20232;-61
2021/05/01 03:52:31;;;;;;;30.27;23.25;;;;;;;;;;5093855;28;20224;-61
2021/05/01 03:54:58;;;;;;;34.03;25.67;;;;;;;;;;5093628;28;20200;-61
2021/05/01 03:57:25;;;;;;;32.35;24.55;;;;;;;;;;5093434;28;20196;-61
2021/05/01 03:59:52;;;;;;;32.67;25.17;;;;;;;;;;5094061;28;20609;-60
2021/05/01 04:02:19;;;;;;;32.70;24.75;;;;;;;;;;5096674;28;20204;-60
2021/05/01 04:08:02;;;;;;;33.47;25.67;;;;;;;;;;5112366;27;20929;-61
2021/05/01 04:10:29;;;;;;;29.88;24.85;;;;;;;;;;5111181;28;20204;-60
2021/05/01 04:12:56;;;;;;;33.47;26.02;;;;;;;;;;5111167;28;20219;-60
2021/05/01 04:15:23;;;;;;;33.20;25.95;;;;;;;;;;5110979;28;20663;-60
2021/05/01 04:17:49;;;;;;;29.92;25.30;;;;;;;;;;5111075;28;20196;-60
2021/05/01 04:20:16;;;;;;;35.63;25.20;;;;;;;;;;5111324;28;20206;-61
2021/05/01 04:22:43;;;;;;;31.70;25.25;;;;;;;;;;5111288;28;20222;-61
2021/05/01 04:25:12;;;;;;;35.50;27.13;;;;;;;;;;5111290;28;20200;-60
2021/05/01 04:27:38;;;;;;;32.03;25.40;;;;;;;;;;5111140;28;20219;-60
2021/05/01 04:30:06;;;;;;;31.85;25.73;;;;;;;;;;5111681;28;20577;-60
2021/05/01 04:32:32;;;;;;;33.50;27.73;;;;;;;;;;5111280;28;20223;-60
2021/05/01 04:34:59;;;;;;;32.55;25.83;;;;;;;;;;5111181;28;20199;-60
2021/05/01 04:37:26;;;;;;;31.27;25.90;;;;;;;;;;5111180;28;20192;-60
2021/05/01 04:39:53;;;;;;;31.48;25.70;;;;;;;;;;5110983;28;20204;-59
2021/05/01 04:42:20;;;;;;;32.00;24.15;;;;;;;;;;5111172;28;20207;-61
2021/05/01 04:44:47;;;;;;;31.05;25.08;;;;;;;;;;5110091;28;20631;-61
2021/05/01 04:47:15;;;;;;;29.92;24.17;;;;;;;;;;5110854;28;20219;-60
2021/05/01 04:49:42;;;;;;;30.40;23.85;;;;;;;;;;5111238;28;20282;-60
2021/05/01 04:52:09;;;;;;;26.30;22.65;;;;;;;;;;5110355;28;20571;-61
2021/05/01 04:54:36;;;;;;;27.85;22.88;;;;;;;;;;5110301;28;20663;-60
2021/05/01 04:57:03;;;;;;;26.85;22.42;;;;;;;;;;5110338;28;20226;-59
2021/05/01 04:59:30;;;;;;;25.73;21.63;;;;;;;;;;5111289;28;20200;-59
2021/05/01 05:01:57;;;;;;;26.80;22.40;;;;;;;;;;5112112;28;20200;-60
2021/05/01 05:04:24;;;;;;;24.13;21.52;;;;;;;;;;5118774;28;20232;-60
2021/05/01 05:06:51;;;;;;;25.25;21.20;;;;;;;;;;5121408;28;20216;-61
2021/05/01 05:09:17;;;;;;;25.88;21.80;;;;;;;;;;5123535;28;20200;-60
2021/05/01 05:11:44;;;;;;;24.40;21.15;;;;;;;;;;5119535;28;20721;-61
2021/05/01 05:14:11;;;;;;;24.33;20.85;;;;;;;;;;5110237;28;20265;-61
2021/05/01 05:16:39;;;;;;;25.80;22.10;;;;;;;;;;5110581;28;20196;-59
2021/05/01 05:19:05;;;;;;;24.02;20.77;;;;;;;;;;5099273;28;20250;-60
2021/05/01 05:21:32;;;;;;;24.35;21.73;;;;;;;;;;5097482;28;20207;-60
2021/05/01 05:23:59;;;;;;;24.25;21.65;;;;;;;;;;5096666;28;20220;-61
2021/05/01 05:26:25;;;;;;;24.13;21.67;;;;;;;;;;5096364;28;20208;-61
2021/05/01 05:28:52;;;;;;;23.37;20.87;;;;;;;;;;5098625;28;20249;-60
2021/05/01 05:31:19;;;;;;;26.83;21.13;;;;;;;;;;5097150;28;20801;-61
2021/05/01 05:33:46;;;;;;;23.20;20.70;;;;;;;;;;5100184;28;20462;-60
2021/05/01 05:36:13;;;;;;;25.80;19.77;;;;;;;;;;5098233;28;20430;-61
2021/05/01 05:38:40;;;;;;;22.53;20.13;;;;;;;;;;5097067;28;20454;-61
2021/05/01 05:41:07;;;;;;;23.00;20.50;;;;;;;;;;5096455;28;20473;-60
2021/05/01 05:43:34;;;;;;;22.40;20.00;;;;;;;;;;5096112;28;20466;-61
2021/05/01 05:46:11;;;;;;;21.17;18.97;;;;;;;;;;5096381;28;20530;-61
2021/05/01 05:48:38;;;;;;;22.47;20.17;;;;;;;;;;5096788;28;20434;-59
2021/05/01 05:51:06;;;;;;;22.50;19.93;;;;;;;;;;5096556;28;20500;-61
2021/05/01 05:53:33;;;;;;;22.37;19.97;;;;;;;;;;5096025;28;20462;-60
2021/05/01 05:56:00;;;;;;;25.20;21.30;;;;;;;;;;5096736;28;20447;-61
2021/05/01 05:58:26;;;;;;;22.87;20.27;;;;;;;;;;5095990;28;20450;-59
2021/05/01 06:00:53;;;;;;;26.30;20.37;;;;;;;;;;5095822;28;20548;-59
2021/05/01 06:03:21;;;;;;;23.67;19.77;;;;;;;;;;5095396;28;20901;-59
2021/05/01 06:05:50;;;;;;;28.00;20.80;;;;;;;;;;5094788;28;20813;-60
2021/05/01 06:08:18;;;;;;;21.10;18.90;;;;;;;;;;5095468;28;20437;-59
2021/05/01 06:10:45;;;;;;;23.20;20.90;;;;;;;;;;5095096;28;20451;-59
2021/05/01 06:13:14;;;;;;;23.93;21.53;;;;;;;;;;5095248;28;20876;-60
2021/05/01 06:15:41;;;;;;;20.50;18.30;;;;;;;;;;5095565;28;20447;-60
2021/05/01 06:18:10;;;;;;;21.47;18.67;;;;;;;;;;5095612;28;20435;-61
2021/05/01 06:20:37;;;;;;;24.20;21.60;;;;;;;;;;5094905;28;20458;-61
2021/05/01 06:23:04;;;;;;;20.63;18.40;;;;;;;;;;5094779;28;20463;-61
2021/05/01 06:25:32;;;;;;;20.50;18.30;;;;;;;;;;5094983;28;20455;-59
2021/05/01 06:27:58;;;;;;;20.80;18.60;;;;;;;;;;5095343;28;20474;-61
2021/05/01 06:30:25;;;;;;;19.73;17.80;;;;;;;;;;5094323;28;20442;-60
2021/05/01 06:32:52;;;;;;;19.67;17.67;;;;;;;;;;5095212;28;20463;-61
2021/05/01 06:35:19;;;;;;;21.43;18.60;;;;;;;;;;5095879;28;20456;-61
2021/05/01 06:37:47;;;;;;;20.00;17.90;;;;;;;;;;5096489;28;20442;-60
2021/05/01 06:40:15;;;;;;;20.17;18.10;;;;;;;;;;5097225;28;20446;-60
2021/05/01 06:42:44;;;;;;;23.77;19.17;;;;;;;;;;5097892;28;21161;-60
2021/05/01 06:45:12;;;;;;;21.97;18.20;;;;;;;;;;5098323;28;20439;-61
2021/05/01 06:47:45;;;;;;;22.30;18.60;;;;;;;;;;5099236;28;20476;-59
2021/05/01 06:50:14;;;;;;;18.50;16.60;;;;;;;;;;5097649;28;21003;-59
2021/05/01 06:52:41;;;;;;;20.27;18.17;;;;;;;;;;5097913;28;20475;-60
2021/05/01 06:55:08;;;;;;;21.10;17.70;;;;;;;;;;5098526;28;20452;-60
2021/05/01 06:57:36;;;;;;;19.30;17.30;;;;;;;;;;5099566;28;20454;-59
2021/05/01 07:00:06;;;;;;;18.37;16.23;;;;;;;;;;5100208;28;20510;-60
2021/05/01 07:02:35;;;;;;;18.07;16.23;;;;;;;;;;5098481;28;20846;-61
2021/05/01 07:05:02;;;;;;;19.40;17.33;;;;;;;;;;5099355;28;20862;-60
2021/05/01 07:07:29;;;;;;;18.73;16.80;;;;;;;;;;5097747;28;20482;-60
2021/05/01 07:09:57;;;;;;;19.33;17.33;;;;;;;;;;5098383;28;20446;-59
2021/05/01 07:12:24;;;;;;;19.87;17.73;;;;;;;;;;5098002;28;20930;-60
2021/05/01 07:14:51;;;;;;;16.93;15.00;;;;;;;;;;5099229;28;20784;-59
2021/05/01 07:17:19;;;;;;;19.83;17.73;;;;;;;;;;5098940;28;20785;-59
2021/05/01 07:19:46;;;;;;;21.53;18.10;;;;;;;;;;5097391;28;20485;-58
2021/05/01 07:22:13;;;;;;;17.87;15.97;;;;;;;;;;5096007;28;20446;-60
2021/05/01 07:24:40;;;;;;;17.77;15.93;;;;;;;;;;5095446;28;20474;-60
2021/05/01 07:27:07;;;;;;;18.77;16.77;;;;;;;;;;5095164;28;20482;-60
2021/05/01 07:29:35;;;;;;;19.17;17.03;;;;;;;;;;5094508;28;20453;-59
2021/05/01 07:32:02;;;;;;;19.17;16.70;;;;;;;;;;5093703;28;20446;-60
2021/05/01 07:34:30;;;;;;;20.20;17.40;;;;;;;;;;5094331;28;20461;-60
2021/05/01 07:37:01;;;;;;;19.60;17.60;;;;;;;;;;5095006;28;20464;-60
2021/05/01 07:39:28;;;;;;;20.77;17.30;;;;;;;;;;5094157;28;20441;-60
2021/05/01 07:41:58;;;;;;;19.33;17.20;;;;;;;;;;5094102;28;20446;-62
2021/05/01 07:44:26;;;;;;;19.50;17.37;;;;;;;;;;5097770;28;20462;-61
2021/05/01 07:46:53;;;;;;;19.03;17.13;;;;;;;;;;5098701;28;20480;-61
2021/05/01 07:49:21;;;;;;;20.23;18.03;;;;;;;;;;5095570;28;20560;-62
2021/05/01 07:51:48;;;;;;;17.90;16.03;;;;;;;;;;5093752;28;20481;-60
2021/05/01 07:54:15;;;;;;;17.53;15.73;;;;;;;;;;5094049;28;20829;-61
2021/05/01 07:56:42;;;;;;;20.03;17.77;;;;;;;;;;5094361;28;20499;-60
2021/05/01 07:59:09;;;;;;;18.70;16.60;;;;;;;;;;5094808;28;20446;-61
2021/05/01 08:01:36;;;;;;;17.93;15.73;;;;;;;;;;5098762;28;20475;-60
2021/05/01 08:04:03;;;;;;;19.07;16.60;;;;;;;;;;5098203;28;20465;-60
2021/05/01 08:06:30;;;;;;;19.53;16.90;;;;;;;;;;5097930;28;20474;-60
2021/05/01 08:08:58;;;;;;;18.90;17.00;;;;;;;;;;5095941;28;20465;-59
2021/05/01 08:11:25;;;;;;;18.67;16.57;;;;;;;;;;5095569;28;20473;-60
2021/05/01 08:13:51;;;;;;;17.00;15.20;;;;;;;;;;5095236;28;20470;-61
2021/05/01 08:16:18;;;;;;;18.87;16.87;;;;;;;;;;5093684;28;20443;-61
2021/05/01 08:18:45;;;;;;;18.90;16.20;;;;;;;;;;5093425;28;20446;-61
2021/05/01 08:21:12;;;;;;;18.37;16.47;;;;;;;;;;5093440;28;20443;-62
2021/05/01 08:23:38;;;;;;;17.03;15.23;;;;;;;;;;5093240;28;20467;-61
2021/05/01 08:26:06;;;;;;;16.40;14.47;;;;;;;;;;5093583;28;20904;-61
2021/05/01 08:28:33;;;;;;;16.20;14.60;;;;;;;;;;5093471;28;20502;-61
2021/05/01 08:31:00;;;;;;;16.13;14.43;;;;;;;;;;5093890;28;20450;-61
2021/05/01 08:33:27;;;;;;;16.77;15.07;;;;;;;;;;5094172;28;20503;-61
2021/05/01 08:35:54;;;;;;;16.43;13.03;;;;;;;;;;5093539;28;20923;-61
2021/05/01 08:38:21;;;;;;;13.60;12.40;;;;;;;;;;5093250;28;20436;-62
2021/05/01 08:40:48;;;;;;;11.40;10.30;;;;;;;;;;5095764;28;20452;-62
2021/05/01 08:43:16;;;;;;;11.30;10.20;;;;;;;;;;5110365;28;20471;-61
2021/05/01 08:45:44;;;;;;;11.60;10.40;;;;;;;;;;5109012;28;20446;-62
2021/05/01 08:48:11;;;;;;;10.87;9.80;;;;;;;;;;5095609;28;20480;-61
2021/05/01 08:50:40;;;;;;;11.10;9.27;;;;;;;;;;5093386;28;20463;-62
2021/05/01 08:53:07;;;;;;;11.63;10.53;;;;;;;;;;5094150;28;20458;-62
2021/05/01 08:55:36;;;;;;;11.27;10.17;;;;;;;;;;5097112;28;20482;-62
2021/05/01 08:58:03;;;;;;;12.10;10.90;;;;;;;;;;5097133;28;20448;-61
2021/05/01 09:00:31;;;;;;;10.53;9.47;;;;;;;;;;5096887;28;20447;-61
2021/05/01 09:03:01;;;;;;;11.77;10.57;;;;;;;;;;5096769;28;20472;-60
2021/05/01 09:05:29;;;;;;;12.40;11.10;;;;;;;;;;5097650;28;20440;-61
2021/05/01 09:07:57;;;;;;;12.87;10.40;;;;;;;;;;5096263;28;20485;-61
2021/05/01 09:10:24;;;;;;;14.53;12.70;;;;;;;;;;5096659;28;20530;-61
2021/05/01 09:12:51;;;;;;;13.60;12.30;;;;;;;;;;5096619;28;20830;-61
2021/05/01 09:15:22;;;;;;;13.70;12.30;;;;;;;;;;5096014;28;20474;-60
2021/05/01 09:17:58;;;;;;;12.33;11.10;;;;;;;;;;5096331;28;20450;-61
2021/05/01 09:20:25;;;;;;;15.27;13.40;;;;;;;;;;5096447;28;20448;-61
2021/05/01 09:22:56;;;;;;;13.57;12.17;;;;;;;;;;5096282;28;20473;-60
2021/05/01 09:25:23;;;;;;;14.37;12.53;;;;;;;;;;5096550;28;20434;-61
2021/05/01 09:27:59;;;;;;;14.80;13.00;;;;;;;;;;5096453;28;20529;-60
2021/05/01 09:30:28;;;;;;;12.73;10.97;;;;;;;;;;5097893;28;20536;-61
2021/05/01 09:33:18;;;;;;;13.93;12.47;;;;;;;;;;5096814;28;20868;-59
2021/05/01 09:35:45;;;;;;;13.73;12.43;;;;;;;;;;5096545;28;20935;-62
2021/05/01 09:38:13;;;;;;;14.23;12.93;;;;;;;;;;5096877;28;20439;-62
2021/05/01 09:40:45;;;;;;;16.07;14.47;;;;;;;;;;5096306;28;20812;-62
2021/05/01 09:43:11;;;;;;;16.20;14.50;;;;;;;;;;5096453;28;20546;-62
2021/05/01 09:45:38;;;;;;;16.77;15.00;;;;;;;;;;5097917;28;21055;-62
2021/05/01 09:48:13;;;;;;;17.03;15.23;;;;;;;;;;5097575;28;20493;-62
2021/05/01 09:50:40;;;;;;;17.20;15.40;;;;;;;;;;5097579;28;20830;-61
2021/05/01 09:53:07;;;;;;;18.00;16.20;;;;;;;;;;5097880;28;20463;-62
2021/05/01 09:55:41;;;;;;;16.73;15.17;;;;;;;;;;5098054;28;20536;-62
2021/05/01 09:58:12;;;;;;;16.73;14.87;;;;;;;;;;5098452;28;20851;-61
2021/05/01 10:00:39;;;;;;;16.07;14.37;;;;;;;;;;5098272;28;20427;-62
2021/05/01 10:03:18;;;;;;;17.33;14.67;;;;;;;;;;5097630;28;20462;-62
2021/05/01 10:05:46;;;;;;;16.53;14.63;;;;;;;;;;5096104;28;20426;-61
2021/05/01 10:08:14;;;;;;;17.63;15.73;;;;;;;;;;5101475;28;20521;-62
2021/05/01 10:10:41;;;;;;;16.23;14.53;;;;;;;;;;5102166;28;20438;-62
2021/05/01 10:13:08;;;;;;;20.00;18.00;;;;;;;;;;5103649;28;20462;-62
2021/05/01 10:15:34;;;;;;;21.20;17.67;;;;;;;;;;5102775;28;20819;-61
2021/05/01 10:18:08;;;;;;;23.20;20.80;;;;;;;;;;5098004;28;20434;-63
2021/05/01 10:20:39;;;;;;;26.53;21.80;;;;;;;;;;5095481;28;20445;-61
2021/05/01 10:23:08;;;;;;;28.90;23.00;;;;;;;;;;5095054;28;20450;-62
2021/05/01 10:25:35;;;;;;;29.10;25.97;;;;;;;;;;5095148;28;20967;-62
2021/05/01 10:28:03;;;;;;;30.53;26.17;;;;;;;;;;5094904;28;20480;-60
2021/05/01 10:30:33;;;;;;;31.17;26.13;;;;;;;;;;5095823;28;20453;-63
2021/05/01 10:33:09;;;;;;;33.23;29.30;;;;;;;;;;5095207;28;20473;-61
2021/05/01 10:35:36;;;;;;;38.90;31.80;;;;;;;;;;5094780;28;20433;-62
2021/05/01 10:38:04;;;;;;;40.07;32.60;;;;;;;;;;5094869;28;20438;-62
2021/05/01 10:40:42;;;;;;;40.53;32.80;;;;;;;;;;5095868;28;20813;-62
2021/05/01 10:43:10;;;;;;;43.70;34.00;;;;;;;;;;5095905;28;20474;-62
2021/05/01 10:45:37;;;;;;;41.37;32.73;;;;;;;;;;5095535;28;20440;-62
2021/05/01 10:48:05;;;;;;;39.43;29.83;;;;;;;;;;5095027;28;20483;-62
2021/05/01 10:50:31;;;;;;;35.97;27.63;;;;;;;;;;5108231;28;20434;-61
2021/05/01 10:52:58;;;;;;;39.70;31.63;;;;;;;;;;5098271;28;20527;-61
2021/05/01 10:55:25;;;;;;;46.90;35.53;;;;;;;;;;5095015;28;20441;-61
2021/05/01 10:58:01;;;;;;;48.07;36.90;;;;;;;;;;5094912;28;20442;-61
2021/05/01 11:00:40;;;;;;;45.37;33.73;;;;;;;;;;5094751;28;20787;-61
2021/05/01 11:03:07;;;;;;;44.33;33.53;;;;;;;;;;5095375;28;20546;-62
2021/05/01 11:05:34;;;;;;;43.50;32.03;;;;;;;;;;5096211;28;20449;-62
2021/05/01 11:08:12;;;;;;;40.10;31.00;;;;;;;;;;5095460;28;20480;-62
2021/05/01 11:10:40;;;;;;;35.40;27.67;;;;;;;;;;5094916;28;21043;-61
2021/05/01 11:13:08;;;;;;;34.30;26.83;;;;;;;;;;5095084;28;20841;-61
2021/05/01 11:15:42;;;;;;;31.70;26.83;;;;;;;;;;5094630;28;20446;-63
2021/05/01 11:18:10;;;;;;;32.20;26.87;;;;;;;;;;5094886;28;20490;-61
2021/05/01 11:20:37;;;;;;;31.27;27.10;;;;;;;;;;5094498;28;20933;-62
2021/05/01 11:23:04;;;;;;;30.53;25.20;;;;;;;;;;5095427;28;20473;-62
2021/05/01 11:25:31;;;;;;;29.60;24.80;;;;;;;;;;5096378;28;20450;-64
2021/05/01 11:27:58;;;;;;;30.47;26.23;;;;;;;;;;5094636;28;20491;-62
2021/05/01 11:30:26;;;;;;;30.37;23.67;;;;;;;;;;5094345;28;20446;-62
2021/05/01 11:32:53;;;;;;;26.30;20.07;;;;;;;;;;5094285;28;20459;-62
2021/05/01 11:35:21;;;;;;;27.00;22.17;;;;;;;;;;5094591;28;20454;-63
2021/05/01 11:37:49;;;;;;;27.20;23.30;;;;;;;;;;5095054;28;20535;-60
2021/05/01 11:40:17;;;;;;;28.20;23.70;;;;;;;;;;5094868;28;20458;-62
2021/05/01 11:42:44;;;;;;;26.00;22.73;;;;;;;;;;5094781;28;20454;-63
2021/05/01 11:45:13;;;;;;;26.63;23.80;;;;;;;;;;5094863;28;20812;-62
2021/05/01 11:47:42;;;;;;;31.60;25.00;;;;;;;;;;5093647;28;20935;-62
2021/05/01 11:50:11;;;;;;;27.63;24.00;;;;;;;;;;5097064;28;20464;-63
2021/05/01 11:52:51;;;;;;;27.20;24.13;;;;;;;;;;5099035;28;20885;-63
2021/05/01 11:55:26;;;;;;;27.97;24.67;;;;;;;;;;5098278;28;20434;-62
2021/05/01 11:57:55;;;;;;;24.57;20.80;;;;;;;;;;5099364;28;20424;-62
2021/05/01 12:00:33;;;;;;;26.13;21.73;;;;;;;;;;5099204;28;20795;-63
2021/05/01 12:03:00;;;;;;;23.43;20.90;;;;;;;;;;5097296;28;20468;-62
2021/05/01 12:05:30;;;;;;;24.60;22.00;;;;;;;;;;5096608;28;20460;-62
2021/05/01 12:08:01;;;;;;;26.10;20.70;;;;;;;;;;5095731;28;20491;-61
2021/05/01 12:10:28;;;;;;;24.73;21.47;;;;;;;;;;5095411;28;20474;-63
2021/05/01 12:12:57;;;;;;;27.97;23.17;;;;;;;;;;5095391;28;20465;-61
2021/05/01 12:15:31;;;;;;;27.20;24.23;;;;;;;;;;5094503;28;20452;-62
2021/05/01 12:17:58;;;;;;;26.67;22.70;;;;;;;;;;5093873;28;20773;-62
2021/05/01 12:20:26;;;;;;;28.17;24.67;;;;;;;;;;5093712;28;20448;-62
2021/05/01 12:22:53;;;;;;;28.73;25.07;;;;;;;;;;5093597;28;20590;-61
2021/05/01 12:25:33;;;;;;;31.53;25.00;;;;;;;;;;5093150;28;20813;-62
2021/05/01 12:28:00;;;;;;;34.33;28.10;;;;;;;;;;5093893;28;20519;-62
2021/05/01 12:31:00;;;;;;;32.33;28.07;;;;;;;;;;5096977;28;20946;-63
2021/05/01 12:33:45;;;;;;;35.10;28.70;;;;;;;;;;5034807;28;20992;-61
2021/05/01 12:36:13;;;;;;;35.40;31.40;;;;;;;;;;5035023;28;20480;-62
2021/05/01 12:38:41;;;;;;;40.13;31.80;;;;;;;;;;5071309;28;20448;-63
2021/05/01 12:41:20;;;;;;;36.67;30.00;;;;;;;;;;5097238;28;20438;-62
2021/05/01 12:43:48;;;;;;;31.83;28.13;;;;;;;;;;5097320;28;20515;-63
2021/05/01 12:46:17;;;;;;;36.37;32.37;;;;;;;;;;5097179;28;20450;-61
2021/05/01 12:48:44;;;;;;;41.00;33.33;;;;;;;;;;5097093;28;20489;-62
2021/05/01 12:51:11;;;;;;;37.80;32.93;;;;;;;;;;5103996;28;20441;-62
2021/05/01 12:53:41;;;;;;;39.40;33.53;;;;;;;;;;5111839;28;20978;-59
2021/05/01 12:56:14;;;;;;;38.70;32.30;;;;;;;;;;5098055;28;20450;-61
2021/05/01 12:58:41;;;;;;;39.03;33.30;;;;;;;;;;5097152;28;20443;-62
2021/05/01 13:01:24;;;;;;;38.00;32.07;;;;;;;;;;5096855;28;20468;-63
2021/05/01 13:04:10;;;;;;;40.30;33.00;;;;;;;;;;5096679;28;20469;-62
2021/05/01 13:06:37;;;;;;;40.53;33.07;;;;;;;;;;5096503;28;20461;-62
2021/05/01 13:09:05;;;;;;;35.77;31.10;;;;;;;;;;5096344;28;20453;-62
2021/05/01 13:11:31;;;;;;;36.83;30.53;;;;;;;;;;5096685;28;20449;-63
2021/05/01 13:14:17;;;;;;;35.10;29.43;;;;;;;;;;5096688;28;20466;-63
2021/05/01 13:17:03;;;;;;;42.60;31.77;;;;;;;;;;5097302;28;20446;-62
2021/05/01 13:19:30;;;;;;;35.20;30.97;;;;;;;;;;5096523;28;20940;-61
2021/05/01 13:21:59;;;;;;;36.63;31.67;;;;;;;;;;5096528;28;20450;-62
2021/05/01 13:24:30;;;;;;;29.90;26.77;;;;;;;;;;5096233;28;20505;-61
2021/05/01 13:26:58;;;;;;;36.03;30.83;;;;;;;;;;5096649;28;20454;-62
2021/05/01 13:29:25;;;;;;;31.83;28.43;;;;;;;;;;5096015;28;20443;-62
2021/05/01 13:31:52;;;;;;;33.60;28.30;;;;;;;;;;5096650;28;20917;-62
2021/05/01 13:34:19;;;;;;;31.43;28.03;;;;;;;;;;5096109;28;20482;-61
2021/05/01 13:36:46;;;;;;;31.87;27.93;;;;;;;;;;5096269;28;20447;-63
2021/05/01 13:39:20;;;;;;;33.45;29.80;;;;;;;;;;5095279;28;20482;-61
2021/05/01 13:42:03;;;;;;;30.00;26.80;;;;;;;;;;5095954;28;20210;-61
2021/05/01 13:44:40;;;;;;;31.07;27.80;;;;;;;;;;5095963;28;20463;-65
2021/05/01 13:47:17;;;;;;;31.70;27.77;;;;;;;;;;5095990;28;20885;-63
2021/05/01 13:49:44;;;;;;;31.23;27.97;;;;;;;;;;5095415;28;20910;-64
2021/05/01 13:52:10;;;;;;;32.20;28.30;;;;;;;;;;5095824;28;20501;-62
2021/05/01 13:54:37;;;;;;;28.60;25.70;;;;;;;;;;5095701;28;20444;-62
2021/05/01 13:57:09;;;;;;;33.87;28.97;;;;;;;;;;5096119;28;20446;-63
2021/05/01 13:59:36;;;;;;;30.90;27.60;;;;;;;;;;5095479;28;20524;-62
2021/05/01 14:02:03;;;;;;;32.30;28.83;;;;;;;;;;5095289;28;20505;-62
2021/05/01 14:04:31;;;;;;;33.13;29.53;;;;;;;;;;5095576;28;20472;-64
2021/05/01 14:06:58;;;;;;;34.53;29.40;;;;;;;;;;5095329;28;20566;-64
2021/05/01 14:09:25;;;;;;;33.23;29.47;;;;;;;;;;5095536;28;20444;-64
2021/05/01 14:11:52;;;;;;;31.40;28.00;;;;;;;;;;5095494;28;20458;-63
2021/05/01 14:14:22;;;;;;;29.90;25.60;;;;;;;;;;5100750;22;20515;-58
2021/05/01 14:17:07;;;;;;;31.30;28.10;;;;;;;;;;5034754;28;20453;-57
2021/05/01 14:19:34;;;;;;;30.63;27.33;;;;;;;;;;5035541;28;20778;-57
2021/05/01 14:22:02;;;;;;;27.43;24.70;;;;;;;;;;5034690;28;20453;-57
2021/05/01 14:24:29;;;;;;;28.40;23.80;;;;;;;;;;5034542;28;20462;-58
2021/05/01 14:26:57;;;;;;;30.30;24.17;;;;;;;;;;5034095;28;20487;-59